Gassaway, WV (26624)

3:34 PM EDT on August 27, 2015 (GMT -0400)
Grapevine Circle | | Change Station
CLOSE
Current Station
Personal Weather Station
Location: Gassaway, WV
Elevation: 1270 ft
Nearby Weather Stations

Elev 1270 ft 38.66 °N, 80.74 °W | Updated 35 seconds ago

Mostly Cloudy
Mostly Cloudy
72.1 °F
Feels Like 76 °F
N
0.0
Wind Variable Wind from North
Gusts 0.0 mph

Today
High -- | Low -- °F
--% Chance of Precip.
Yesterday
High -- | Low -- °F
Precip. -- in
6:47 AM 8:01 PM
Waxing Gibbous, 94% visible
Pressure 30.17 in
Visibility 10.0 miles
Clouds Overcast 4500 ft
Heat Index 76 °F
Dew Point 59 °F
Humidity 64%
Rainfall 0.00 in
Snow Depth Not available.
UV 2 out of 12
Pollen 8.70 out of 12
Air Quality Not available.
Flu Activity Not available.
METAR KW22 271915Z AUTO VRB05KT 10SM OVC045 21/13 A3017 RMK AO2
Pressure 30.17 in
Visibility 10.0 miles
Clouds Overcast 4500 ft
Heat Index 76 °F
Dew Point 59 °F
Humidity 64%
Rainfall 0.00 in
Snow Depth Not available.
UV 2 out of 12
Pollen 8.70 out of 12
Air Quality Not available.
Flu Activity Not available.
METAR KW22 271915Z AUTO VRB05KT 10SM OVC045 21/13 A3017 RMK AO2

10-Day Weather Forecast

×

Almanac

Astronomy

Aug. 27, 2015 Rise Set
Actual Time
Civil Twilight
Nautical Twilight
Astronomical Twilight
Moon
Length of Visible Light
Length of Day
Tomorrow will be .
, % of the Moon is Illuminated

Today's Extremes

State Highs State Lows

Community

WunderPhotos

Upload Photos

1,850,195 photos uploaded!

WunderBlogs® & News

Nearby

Air Quality

  Air Quality AQ Index Pollutant
Not available.

Snow Depth

Station Depth Elevation

Earthquake Activity

City Distance Mag. Time & Date
Minimum magnitude displayed is 2.5.

Coastal Water Temperatures

Place Temperature

Stations

Nearby Weather Stations

Station Location Temp. Windchill Dew Point Humidity Wind Precip. Elev Updated Type